sensor_id;sensor_type;location;lat;lon;timestamp;pressure;altitude;pressure_sealevel;temperature;humidity
14767;BME280;7475;53.558;9.970;2022-12-07T00:01:17;101225.06;;;4.12;100.00
14767;BME280;7475;53.558;9.970;2022-12-07T00:03:44;101213.81;;;4.07;100.00
14767;BME280;7475;53.558;9.970;2022-12-07T00:06:13;101215.47;;;4.11;100.00
14767;BME280;7475;53.558;9.970;2022-12-07T00:08:39;101215.41;;;4.13;100.00
14767;BME280;7475;53.558;9.970;2022-12-07T00:11:07;101200.59;;;4.10;100.00
14767;BME280;7475;53.558;9.970;2022-12-07T00:13:33;101199.41;;;4.21;100.00
14767;BME280;7475;53.558;9.970;2022-12-07T00:16:05;101205.56;;;4.19;100.00
14767;BME280;7475;53.558;9.970;2022-12-07T00:18:31;101196.84;;;4.19;100.00
14767;BME280;7475;53.558;9.970;2022-12-07T00:21:04;101195.06;;;4.19;100.00
14767;BME280;7475;53.558;9.970;2022-12-07T00:23:31;101195.75;;;4.25;100.00
14767;BME280;7475;53.558;9.970;2022-12-07T00:26:03;101203.75;;;4.22;100.00
14767;BME280;7475;53.558;9.970;2022-12-07T00:28:28;101190.69;;;4.18;100.00
14767;BME280;7475;53.558;9.970;2022-12-07T00:31:00;101194.03;;;4.24;100.00
14767;BME280;7475;53.558;9.970;2022-12-07T00:33:26;101188.69;;;4.27;100.00
14767;BME280;7475;53.558;9.970;2022-12-07T00:35:57;101180.09;;;4.22;100.00
14767;BME280;7475;53.558;9.970;2022-12-07T00:38:23;101181.00;;;4.21;100.00
14767;BME280;7475;53.558;9.970;2022-12-07T00:41:00;101188.09;;;4.17;100.00
14767;BME280;7475;53.558;9.970;2022-12-07T00:43:27;101180.00;;;4.25;100.00
14767;BME280;7475;53.558;9.970;2022-12-07T00:45:53;101177.44;;;4.22;100.00
14767;BME280;7475;53.558;9.970;2022-12-07T00:48:19;101176.38;;;4.29;100.00
14767;BME280;7475;53.558;9.970;2022-12-07T00:50:45;101169.38;;;4.28;100.00
14767;BME280;7475;53.558;9.970;2022-12-07T00:53:10;101168.34;;;4.33;100.00
14767;BME280;7475;53.558;9.970;2022-12-07T00:55:35;101173.00;;;4.24;100.00
14767;BME280;7475;53.558;9.970;2022-12-07T00:58:01;101167.53;;;4.30;100.00
14767;BME280;7475;53.558;9.970;2022-12-07T01:00:27;101160.50;;;4.32;100.00
14767;BME280;7475;53.558;9.970;2022-12-07T01:02:52;101156.75;;;4.39;100.00
14767;BME280;7475;53.558;9.970;2022-12-07T01:05:18;101156.66;;;4.42;100.00
14767;BME280;7475;53.558;9.970;2022-12-07T01:07:43;101153.16;;;4.42;100.00
14767;BME280;7475;53.558;9.970;2022-12-07T01:10:09;101150.63;;;4.38;100.00
14767;BME280;7475;53.558;9.970;2022-12-07T01:12:34;101141.16;;;4.33;100.00
14767;BME280;7475;53.558;9.970;2022-12-07T01:14:59;101146.22;;;4.39;100.00
14767;BME280;7475;53.558;9.970;2022-12-07T01:17:25;101136.59;;;4.38;100.00
14767;BME280;7475;53.558;9.970;2022-12-07T01:19:50;101147.44;;;4.29;100.00
14767;BME280;7475;53.558;9.970;2022-12-07T01:22:15;101145.72;;;4.28;100.00
14767;BME280;7475;53.558;9.970;2022-12-07T01:24:41;101140.31;;;4.32;100.00
14767;BME280;7475;53.558;9.970;2022-12-07T01:27:06;101141.06;;;4.36;100.00
14767;BME280;7475;53.558;9.970;2022-12-07T01:29:31;101135.81;;;4.36;100.00
14767;BME280;7475;53.558;9.970;2022-12-07T01:31:56;101141.97;;;4.35;100.00
14767;BME280;7475;53.558;9.970;2022-12-07T01:34:22;101138.78;;;4.25;100.00
14767;BME280;7475;53.558;9.970;2022-12-07T01:36:47;101149.97;;;4.32;100.00
14767;BME280;7475;53.558;9.970;2022-12-07T01:39:12;101143.78;;;4.33;100.00
14767;BME280;7475;53.558;9.970;2022-12-07T01:41:40;101133.22;;;4.34;100.00
14767;BME280;7475;53.558;9.970;2022-12-07T01:44:12;101139.22;;;4.38;100.00
14767;BME280;7475;53.558;9.970;2022-12-07T01:46:39;101139.22;;;4.38;100.00
14767;BME280;7475;53.558;9.970;2022-12-07T01:49:08;101132.38;;;4.34;100.00
14767;BME280;7475;53.558;9.970;2022-12-07T01:51:37;101141.16;;;4.33;100.00
14767;BME280;7475;53.558;9.970;2022-12-07T01:54:05;101132.47;;;4.31;100.00
14767;BME280;7475;53.558;9.970;2022-12-07T01:56:32;101139.47;;;4.32;100.00
14767;BME280;7475;53.558;9.970;2022-12-07T01:58:59;101135.91;;;4.33;100.00
14767;BME280;7475;53.558;9.970;2022-12-07T02:01:25;101136.00;;;4.30;100.00
14767;BME280;7475;53.558;9.970;2022-12-07T02:03:51;101136.00;;;4.30;100.00
14767;BME280;7475;53.558;9.970;2022-12-07T02:06:22;101127.31;;;4.28;100.00
14767;BME280;7475;53.558;9.970;2022-12-07T02:08:49;101145.91;;;4.22;100.00
14767;BME280;7475;53.558;9.970;2022-12-07T02:11:15;101132.84;;;4.18;100.00
14767;BME280;7475;53.558;9.970;2022-12-07T02:13:42;101134.69;;;4.16;100.00
14767;BME280;7475;53.558;9.970;2022-12-07T02:21:55;101133.25;;;4.06;100.00
14767;BME280;7475;53.558;9.970;2022-12-07T02:27:47;101135.16;;;4.01;100.00
14767;BME280;7475;53.558;9.970;2022-12-07T02:30:18;101128.38;;;3.94;100.00
14767;BME280;7475;53.558;9.970;2022-12-07T02:37:53;101119.69;;;3.92;100.00
14767;BME280;7475;53.558;9.970;2022-12-07T02:40:43;101115.53;;;3.85;100.00
14767;BME280;7475;53.558;9.970;2022-12-07T02:45:50;101130.56;;;3.79;100.00
14767;BME280;7475;53.558;9.970;2022-12-07T02:48:18;101121.88;;;3.77;100.00
14767;BME280;7475;53.558;9.970;2022-12-07T02:50:48;101122.75;;;3.78;100.00
14767;BME280;7475;53.558;9.970;2022-12-07T02:53:39;101122.78;;;3.76;100.00
14767;BME280;7475;53.558;9.970;2022-12-07T02:56:56;101125.31;;;3.79;100.00
14767;BME280;7475;53.558;9.970;2022-12-07T03:01:42;101130.84;;;3.70;100.00
14767;BME280;7475;53.558;9.970;2022-12-07T03:09:44;101129.13;;;3.69;100.00
14767;BME280;7475;53.558;9.970;2022-12-07T03:12:17;101133.56;;;3.67;100.00
14767;BME280;7475;53.558;9.970;2022-12-07T03:14:50;101128.41;;;3.64;100.00
14767;BME280;7475;53.558;9.970;2022-12-07T03:17:27;101129.25;;;3.66;100.00
14767;BME280;7475;53.558;9.970;2022-12-07T03:19:59;101124.06;;;3.63;100.00
14767;BME280;7475;53.558;9.970;2022-12-07T03:22:28;101127.59;;;3.62;100.00
14767;BME280;7475;53.558;9.970;2022-12-07T03:24:58;101120.59;;;3.61;100.00
14767;BME280;7475;53.558;9.970;2022-12-07T03:27:30;101122.44;;;3.59;100.00
14767;BME280;7475;53.558;9.970;2022-12-07T03:30:04;101120.59;;;3.61;100.00
14767;BME280;7475;53.558;9.970;2022-12-07T03:35:21;101119.16;;;3.51;100.00
14767;BME280;7475;53.558;9.970;2022-12-07T03:37:56;101120.91;;;3.52;100.00
14767;BME280;7475;53.558;9.970;2022-12-07T03:40:28;101127.94;;;3.50;100.00
14767;BME280;7475;53.558;9.970;2022-12-07T03:42:56;101126.34;;;3.45;100.00
14767;BME280;7475;53.558;9.970;2022-12-07T03:45:37;101124.63;;;3.43;100.00
14767;BME280;7475;53.558;9.970;2022-12-07T03:50:40;101120.41;;;3.39;100.00
14767;BME280;7475;53.558;9.970;2022-12-07T03:53:12;101128.31;;;3.37;100.00
14767;BME280;7475;53.558;9.970;2022-12-07T03:55:42;101130.19;;;3.32;100.00
14767;BME280;7475;53.558;9.970;2022-12-07T03:58:12;101126.75;;;3.30;100.00
14767;BME280;7475;53.558;9.970;2022-12-07T04:00:40;101121.59;;;3.27;100.00
14767;BME280;7475;53.558;9.970;2022-12-07T04:03:06;101125.91;;;3.30;100.00
14767;BME280;7475;53.558;9.970;2022-12-07T04:05:31;101139.06;;;3.28;100.00
14767;BME280;7475;53.558;9.970;2022-12-07T04:07:57;101137.25;;;3.30;100.00
14767;BME280;7475;53.558;9.970;2022-12-07T04:10:22;101133.91;;;3.25;100.00
14767;BME280;7475;53.558;9.970;2022-12-07T04:12:47;101138.41;;;3.21;100.00
14767;BME280;7475;53.558;9.970;2022-12-07T04:15:13;101142.75;;;3.21;100.00
14767;BME280;7475;53.558;9.970;2022-12-07T04:17:38;101139.34;;;3.19;100.00
14767;BME280;7475;53.558;9.970;2022-12-07T04:20:04;101127.00;;;3.21;100.00
14767;BME280;7475;53.558;9.970;2022-12-07T04:22:30;101134.06;;;3.19;100.00
14767;BME280;7475;53.558;9.970;2022-12-07T04:24:55;101141.06;;;3.20;100.00
14767;BME280;7475;53.558;9.970;2022-12-07T04:27:21;101132.34;;;3.18;100.00
14767;BME280;7475;53.558;9.970;2022-12-07T04:29:46;101145.38;;;3.21;100.00
14767;BME280;7475;53.558;9.970;2022-12-07T04:32:11;101150.63;;;3.21;100.00
14767;BME280;7475;53.558;9.970;2022-12-07T04:34:37;101142.75;;;3.21;100.00
14767;BME280;7475;53.558;9.970;2022-12-07T04:37:02;101136.63;;;3.22;100.00
14767;BME280;7475;53.558;9.970;2022-12-07T04:39:29;101147.94;;;3.24;100.00
14767;BME280;7475;53.558;9.970;2022-12-07T04:41:56;101146.31;;;3.20;100.00
14767;BME280;7475;53.558;9.970;2022-12-07T04:44:22;101151.66;;;3.17;100.00
14767;BME280;7475;53.558;9.970;2022-12-07T04:46:48;101149.91;;;3.16;100.00
14767;BME280;7475;53.558;9.970;2022-12-07T04:49:14;101150.84;;;3.15;100.00
14767;BME280;7475;53.558;9.970;2022-12-07T04:51:41;101142.06;;;3.14;100.00
14767;BME280;7475;53.558;9.970;2022-12-07T04:54:06;101143.91;;;3.12;100.00
14767;BME280;7475;53.558;9.970;2022-12-07T04:56:32;101143.03;;;3.12;100.00
14767;BME280;7475;53.558;9.970;2022-12-07T04:59:00;101143.13;;;3.08;100.00
14767;BME280;7475;53.558;9.970;2022-12-07T05:01:25;101145.78;;;3.07;100.00
14767;BME280;7475;53.558;9.970;2022-12-07T05:03:51;101144.91;;;3.06;100.00
14767;BME280;7475;53.558;9.970;2022-12-07T05:06:16;101136.22;;;3.04;100.00
14767;BME280;7475;53.558;9.970;2022-12-07T05:08:42;101137.97;;;3.05;100.00
14767;BME280;7475;53.558;9.970;2022-12-07T05:11:08;101138.03;;;3.02;100.00
14767;BME280;7475;53.558;9.970;2022-12-07T05:13:35;101133.72;;;3.00;100.00
14767;BME280;7475;53.558;9.970;2022-12-07T05:16:01;101138.19;;;2.96;100.00
14767;BME280;7475;53.558;9.970;2022-12-07T05:18:26;101138.19;;;2.96;100.00
14767;BME280;7475;53.558;9.970;2022-12-07T05:20:51;101131.13;;;2.98;100.00
14767;BME280;7475;53.558;9.970;2022-12-07T05:23:17;101134.69;;;2.97;100.00
14767;BME280;7475;53.558;9.970;2022-12-07T05:25:43;101132.94;;;2.96;100.00
14767;BME280;7475;53.558;9.970;2022-12-07T05:28:09;101134.69;;;2.97;100.00
14767;BME280;7475;53.558;9.970;2022-12-07T05:30:35;101131.13;;;2.98;100.00
14767;BME280;7475;53.558;9.970;2022-12-07T05:33:00;101134.69;;;2.97;100.00
14767;BME280;7475;53.558;9.970;2022-12-07T05:35:25;101132.88;;;2.99;100.00
14767;BME280;7475;53.558;9.970;2022-12-07T05:37:51;101130.28;;;2.98;100.00
14767;BME280;7475;53.558;9.970;2022-12-07T05:40:17;101138.94;;;3.01;100.00
14767;BME280;7475;53.558;9.970;2022-12-07T05:42:44;101131.13;;;2.98;100.00
14767;BME280;7475;53.558;9.970;2022-12-07T05:45:10;101132.94;;;2.96;100.00
14767;BME280;7475;53.558;9.970;2022-12-07T05:47:35;101138.13;;;2.99;100.00
14767;BME280;7475;53.558;9.970;2022-12-07T05:50:01;101131.06;;;3.01;100.00
14767;BME280;7475;53.558;9.970;2022-12-07T05:52:26;101129.34;;;3.00;100.00
14767;BME280;7475;53.558;9.970;2022-12-07T05:54:52;101129.34;;;3.00;100.00
14767;BME280;7475;53.558;9.970;2022-12-07T05:57:18;101134.50;;;3.03;100.00
14767;BME280;7475;53.558;9.970;2022-12-07T05:59:43;101131.06;;;3.01;100.00
14767;BME280;7475;53.558;9.970;2022-12-07T06:02:11;101125.00;;;2.99;100.00
14767;BME280;7475;53.558;9.970;2022-12-07T06:04:40;101131.06;;;3.01;100.00
14767;BME280;7475;53.558;9.970;2022-12-07T06:07:06;101128.56;;;2.97;100.00
14767;BME280;7475;53.558;9.970;2022-12-07T06:09:32;101130.38;;;2.95;100.00
14767;BME280;7475;53.558;9.970;2022-12-07T06:11:58;101127.78;;;2.93;100.00
14767;BME280;7475;53.558;9.970;2022-12-07T06:14:42;101131.28;;;2.92;100.00
14767;BME280;7475;53.558;9.970;2022-12-07T06:17:07;101125.88;;;2.98;100.00
14767;BME280;7475;53.558;9.970;2022-12-07T06:19:32;101124.19;;;2.97;100.00
14767;BME280;7475;53.558;9.970;2022-12-07T06:21:58;101126.81;;;2.97;100.00
14767;BME280;7475;53.558;9.970;2022-12-07T06:24:24;101131.22;;;2.95;100.00
14767;BME280;7475;53.558;9.970;2022-12-07T06:26:50;101119.06;;;2.92;100.00
14767;BME280;7475;53.558;9.970;2022-12-07T06:29:16;101117.44;;;2.87;100.00
14767;BME280;7475;53.558;9.970;2022-12-07T06:31:41;101115.66;;;2.89;100.00
14767;BME280;7475;53.558;9.970;2022-12-07T06:34:10;101115.56;;;2.92;100.00
14767;BME280;7475;53.558;9.970;2022-12-07T06:36:36;101122.47;;;2.96;100.00
14767;BME280;7475;53.558;9.970;2022-12-07T06:39:02;101124.19;;;2.97;100.00
14767;BME280;7475;53.558;9.970;2022-12-07T06:41:28;101129.34;;;3.00;100.00
14767;BME280;7475;53.558;9.970;2022-12-07T06:43:54;101122.28;;;3.02;100.00
14767;BME280;7475;53.558;9.970;2022-12-07T06:46:19;101132.09;;;2.96;100.00
14767;BME280;7475;53.558;9.970;2022-12-07T06:48:45;101124.97;;;3.01;100.00
14767;BME280;7475;53.558;9.970;2022-12-07T06:51:10;101121.59;;;2.96;100.00
14767;BME280;7475;53.558;9.970;2022-12-07T06:53:36;101120.66;;;2.98;100.00
14767;BME280;7475;53.558;9.970;2022-12-07T06:56:02;101122.38;;;2.99;100.00
14767;BME280;7475;53.558;9.970;2022-12-07T06:58:28;101127.53;;;3.02;100.00
14767;BME280;7475;53.558;9.970;2022-12-07T07:00:53;101118.94;;;2.97;100.00
14767;BME280;7475;53.558;9.970;2022-12-07T07:03:19;101127.63;;;2.99;100.00
14767;BME280;7475;53.558;9.970;2022-12-07T07:05:44;101129.34;;;3.00;100.00
14767;BME280;7475;53.558;9.970;2022-12-07T07:08:11;101121.66;;;2.94;100.00
14767;BME280;7475;53.558;9.970;2022-12-07T07:10:37;101129.59;;;2.91;100.00
14767;BME280;7475;53.558;9.970;2022-12-07T07:13:03;101134.75;;;2.94;100.00
14767;BME280;7475;53.558;9.970;2022-12-07T07:15:32;101130.44;;;2.91;100.00
14767;BME280;7475;53.558;9.970;2022-12-07T07:17:58;101133.88;;;2.94;100.00
14767;BME280;7475;53.558;9.970;2022-12-07T07:20:24;101127.78;;;2.93;100.00
14767;BME280;7475;53.558;9.970;2022-12-07T07:22:49;101132.09;;;2.96;100.00
14767;BME280;7475;53.558;9.970;2022-12-07T07:25:15;101128.59;;;2.95;100.00
14767;BME280;7475;53.558;9.970;2022-12-07T07:27:41;101126.00;;;2.94;100.00
14767;BME280;7475;53.558;9.970;2022-12-07T07:30:07;101125.97;;;2.95;100.00
14767;BME280;7475;53.558;9.970;2022-12-07T07:32:33;101130.28;;;2.98;100.00
14767;BME280;7475;53.558;9.970;2022-12-07T07:34:58;101132.94;;;2.96;100.00
14767;BME280;7475;53.558;9.970;2022-12-07T07:37:23;101130.25;;;2.99;100.00
14767;BME280;7475;53.558;9.970;2022-12-07T07:39:49;101136.47;;;2.95;100.00
14767;BME280;7475;53.558;9.970;2022-12-07T07:42:15;101136.53;;;2.92;100.00
14767;BME280;7475;53.558;9.970;2022-12-07T07:44:40;101141.56;;;3.01;100.00
14767;BME280;7475;53.558;9.970;2022-12-07T07:47:05;101148.53;;;3.02;100.00
14767;BME280;7475;53.558;9.970;2022-12-07T07:49:31;101139.75;;;3.03;100.00
14767;BME280;7475;53.558;9.970;2022-12-07T07:51:56;101143.28;;;3.02;100.00
14767;BME280;7475;53.558;9.970;2022-12-07T07:54:21;101144.09;;;3.04;100.00
14767;BME280;7475;53.558;9.970;2022-12-07T07:56:47;101152.06;;;3.01;100.00
14767;BME280;7475;53.558;9.970;2022-12-07T07:59:12;101144.81;;;3.09;100.00
14767;BME280;7475;53.558;9.970;2022-12-07T08:01:37;101155.16;;;3.16;100.00
14767;BME280;7475;53.558;9.970;2022-12-07T08:04:02;101155.16;;;3.16;100.00
14767;BME280;7475;53.558;9.970;2022-12-07T08:06:28;101149.91;;;3.16;100.00
14767;BME280;7475;53.558;9.970;2022-12-07T08:08:53;101152.56;;;3.14;100.00
14767;BME280;7475;53.558;9.970;2022-12-07T08:11:19;101148.91;;;3.21;100.00
14767;BME280;7475;53.558;9.970;2022-12-07T08:13:46;101148.72;;;3.27;100.00
14767;BME280;7475;53.558;9.970;2022-12-07T08:16:12;101146.06;;;3.29;100.00
14767;BME280;7475;53.558;9.970;2022-12-07T08:18:39;101145.00;;;3.35;100.00
14767;BME280;7475;53.558;9.970;2022-12-07T08:21:06;101147.44;;;3.42;100.00
14767;BME280;7475;53.558;9.970;2022-12-07T08:23:32;101144.72;;;3.45;100.00
14767;BME280;7475;53.558;9.970;2022-12-07T08:26:05;101136.91;;;3.42;100.00
14767;BME280;7475;53.558;9.970;2022-12-07T08:28:31;101136.84;;;3.45;100.00
14767;BME280;7475;53.558;9.970;2022-12-07T08:31:01;101131.47;;;3.50;100.00
14767;BME280;7475;53.558;9.970;2022-12-07T08:33:27;101141.81;;;3.55;100.00
14767;BME280;7475;53.558;9.970;2022-12-07T08:35:52;101139.88;;;3.61;100.00
14767;BME280;7475;53.558;9.970;2022-12-07T08:38:18;101145.00;;;3.66;100.00
14767;BME280;7475;53.558;9.970;2022-12-07T08:40:43;101146.75;;;3.65;100.00
14767;BME280;7475;53.558;9.970;2022-12-07T08:43:09;101148.44;;;3.68;100.00
14767;BME280;7475;53.558;9.970;2022-12-07T08:45:34;101148.25;;;3.74;100.00
14767;BME280;7475;53.558;9.970;2022-12-07T08:48:06;101139.53;;;3.72;100.00
14767;BME280;7475;53.558;9.970;2022-12-07T08:50:33;101146.34;;;3.79;100.00
14767;BME280;7475;53.558;9.970;2022-12-07T08:52:59;101146.06;;;3.89;100.00
14767;BME280;7475;53.558;9.970;2022-12-07T08:55:25;101138.09;;;3.92;100.00
14767;BME280;7475;53.558;9.970;2022-12-07T08:57:52;101133.63;;;3.94;100.00
14767;BME280;7475;53.558;9.970;2022-12-07T09:00:18;101149.28;;;3.98;100.00
14767;BME280;7475;53.558;9.970;2022-12-07T09:02:44;101145.66;;;4.01;100.00
14767;BME280;7475;53.558;9.970;2022-12-07T09:05:11;101146.38;;;4.08;100.00
14767;BME280;7475;53.558;9.970;2022-12-07T09:07:37;101148.91;;;4.09;100.00
14767;BME280;7475;53.558;9.970;2022-12-07T09:10:04;101148.72;;;4.15;100.00
14767;BME280;7475;53.558;9.970;2022-12-07T09:12:30;101153.59;;;4.28;100.00
14767;BME280;7475;53.558;9.970;2022-12-07T09:14:55;101157.81;;;4.33;100.00
14767;BME280;7475;53.558;9.970;2022-12-07T09:17:21;101153.41;;;4.34;100.00
14767;BME280;7475;53.558;9.970;2022-12-07T09:19:46;101151.56;;;4.36;100.00
14767;BME280;7475;53.558;9.970;2022-12-07T09:22:12;101153.31;;;4.37;100.00
14767;BME280;7475;53.558;9.970;2022-12-07T09:24:37;101155.00;;;4.38;100.00
14767;BME280;7475;53.558;9.970;2022-12-07T09:27:02;101153.31;;;4.37;100.00
14767;BME280;7475;53.558;9.970;2022-12-07T09:29:28;101151.38;;;4.42;100.00
14767;BME280;7475;53.558;9.970;2022-12-07T09:31:53;101148.66;;;4.45;100.00
14767;BME280;7475;53.558;9.970;2022-12-07T09:34:18;101150.22;;;4.51;100.00
14767;BME280;7475;53.558;9.970;2022-12-07T09:36:45;101149.16;;;4.56;100.00
14767;BME280;7475;53.558;9.970;2022-12-07T09:39:10;101145.53;;;4.61;100.00
14767;BME280;7475;53.558;9.970;2022-12-07T09:41:40;101142.16;;;4.55;100.00
14767;BME280;7475;53.558;9.970;2022-12-07T09:44:11;101142.06;;;4.59;100.00
14767;BME280;7475;53.558;9.970;2022-12-07T09:46:40;101143.69;;;4.63;100.00
14767;BME280;7475;53.558;9.970;2022-12-07T09:49:16;101139.06;;;4.69;100.00
14767;BME280;7475;53.558;9.970;2022-12-07T09:51:43;101148.72;;;4.70;100.00
14767;BME280;7475;53.558;9.970;2022-12-07T09:54:12;101145.69;;;4.81;100.00
14767;BME280;7475;53.558;9.970;2022-12-07T09:56:38;101145.31;;;4.92;100.00
14767;BME280;7475;53.558;9.970;2022-12-07T09:59:04;101145.16;;;4.97;100.00
14767;BME280;7475;53.558;9.970;2022-12-07T10:01:32;101144.06;;;5.02;100.00
14767;BME280;7475;53.558;9.970;2022-12-07T10:04:09;101138.84;;;5.01;100.00
14767;BME280;7475;53.558;9.970;2022-12-07T10:06:36;101138.75;;;5.04;100.00
14767;BME280;7475;53.558;9.970;2022-12-07T10:09:02;101133.50;;;5.04;100.00
14767;BME280;7475;53.558;9.970;2022-12-07T10:11:28;101139.78;;;5.00;100.00
14767;BME280;7475;53.558;9.970;2022-12-07T10:13:53;101135.44;;;4.99;100.00
14767;BME280;7475;53.558;9.970;2022-12-07T10:18:53;101126.41;;;5.06;100.00
14767;BME280;7475;53.558;9.970;2022-12-07T10:21:26;101124.47;;;5.11;100.00
14767;BME280;7475;53.558;9.970;2022-12-07T10:26:50;101134.78;;;5.17;100.00
14767;BME280;7475;53.558;9.970;2022-12-07T10:32:02;101128.47;;;5.21;100.00
14767;BME280;7475;53.558;9.970;2022-12-07T10:34:37;101128.59;;;5.18;100.00
14767;BME280;7475;53.558;9.970;2022-12-07T10:39:58;101129.53;;;5.17;100.00
14767;BME280;7475;53.558;9.970;2022-12-07T10:42:28;101125.72;;;5.24;100.00
14767;BME280;7475;53.558;9.970;2022-12-07T10:45:13;101125.63;;;5.27;100.00
14767;BME280;7475;53.558;9.970;2022-12-07T10:48:10;101126.25;;;5.34;100.00
14767;BME280;7475;53.558;9.970;2022-12-07T10:53:28;101122.31;;;5.46;100.00
14767;BME280;7475;53.558;9.970;2022-12-07T10:56:13;101114.31;;;5.49;100.00
14767;BME280;7475;53.558;9.970;2022-12-07T11:01:31;101108.19;;;5.71;100.00
14767;BME280;7475;53.558;9.970;2022-12-07T11:14:58;101099.63;;;5.65;100.00
14767;BME280;7475;53.558;9.970;2022-12-07T11:20:52;101105.00;;;5.62;100.00
14767;BME280;7475;53.558;9.970;2022-12-07T11:31:18;101082.09;;;5.64;100.00
14767;BME280;7475;53.558;9.970;2022-12-07T11:33:54;101089.19;;;5.62;100.00
14767;BME280;7475;53.558;9.970;2022-12-07T11:36:40;101078.41;;;5.69;100.00
14767;BME280;7475;53.558;9.970;2022-12-07T11:41:47;101073.94;;;5.71;100.00
14767;BME280;7475;53.558;9.970;2022-12-07T11:47:17;101067.06;;;5.66;100.00
14767;BME280;7475;53.558;9.970;2022-12-07T11:52:54;101065.47;;;5.62;100.00
14767;BME280;7475;53.558;9.970;2022-12-07T11:55:41;101064.56;;;5.63;100.00
14767;BME280;7475;53.558;9.970;2022-12-07T12:01:14;101063.47;;;5.69;100.00
14767;BME280;7475;53.558;9.970;2022-12-07T12:03:47;101060.66;;;5.74;100.00
14767;BME280;7475;53.558;9.970;2022-12-07T12:06:13;101063.78;;;5.83;100.00
14767;BME280;7475;53.558;9.970;2022-12-07T12:20:06;101060.66;;;6.18;100.00
14767;BME280;7475;53.558;9.970;2022-12-07T12:22:40;101062.34;;;6.19;100.00
14767;BME280;7475;53.558;9.970;2022-12-07T12:25:22;101069.00;;;6.29;100.00
14767;BME280;7475;53.558;9.970;2022-12-07T12:27:49;101065.28;;;6.33;100.00
14767;BME280;7475;53.558;9.970;2022-12-07T12:30:35;101066.63;;;6.44;100.00
14767;BME280;7475;53.558;9.970;2022-12-07T12:35:37;101054.47;;;6.81;100.00
14767;BME280;7475;53.558;9.970;2022-12-07T12:40:47;101055.97;;;7.26;100.00
14767;BME280;7475;53.558;9.970;2022-12-07T12:43:44;101042.97;;;7.59;100.00
14767;BME280;7475;53.558;9.970;2022-12-07T12:57:33;101036.50;;;7.65;100.00
14767;BME280;7475;53.558;9.970;2022-12-07T13:00:14;101036.50;;;7.65;100.00
14767;BME280;7475;53.558;9.970;2022-12-07T13:02:52;101033.22;;;7.60;100.00
14767;BME280;7475;53.558;9.970;2022-12-07T13:05:23;101028.38;;;7.51;100.00
14767;BME280;7475;53.558;9.970;2022-12-07T13:07:55;101033.38;;;7.57;100.00
14767;BME280;7475;53.558;9.970;2022-12-07T13:24:00;101035.78;;;7.80;100.00
14767;BME280;7475;53.558;9.970;2022-12-07T13:29:20;101038.38;;;7.44;100.00
14767;BME280;7475;53.558;9.970;2022-12-07T13:31:52;101040.88;;;7.28;100.00
14767;BME280;7475;53.558;9.970;2022-12-07T13:34:43;101035.53;;;7.10;100.00
14767;BME280;7475;53.558;9.970;2022-12-07T13:37:14;101042.94;;;7.02;100.00
14767;BME280;7475;53.558;9.970;2022-12-07T13:39:53;101034.66;;;6.91;100.00
14767;BME280;7475;53.558;9.970;2022-12-07T13:42:33;101036.00;;;6.81;100.00
14767;BME280;7475;53.558;9.970;2022-12-07T13:47:49;101049.31;;;6.78;100.00
14767;BME280;7475;53.558;9.970;2022-12-07T13:50:28;101040.66;;;6.74;100.00
14767;BME280;7475;53.558;9.970;2022-12-07T13:52:55;101036.47;;;6.70;100.00
14767;BME280;7475;53.558;9.970;2022-12-07T13:55:21;101047.22;;;6.65;100.00
14767;BME280;7475;53.558;9.970;2022-12-07T13:57:50;101037.88;;;6.58;100.00
14767;BME280;7475;53.558;9.970;2022-12-07T14:00:18;101051.84;;;6.60;100.00
14767;BME280;7475;53.558;9.970;2022-12-07T14:05:31;101048.13;;;6.64;100.00
14767;BME280;7475;53.558;9.970;2022-12-07T14:13:03;101044.97;;;6.56;100.00
14767;BME280;7475;53.558;9.970;2022-12-07T14:15:50;101045.09;;;6.53;100.00
14767;BME280;7475;53.558;9.970;2022-12-07T14:21:06;101034.09;;;6.43;100.00
14767;BME280;7475;53.558;9.970;2022-12-07T14:23:32;101042.06;;;6.42;100.00
14767;BME280;7475;53.558;9.970;2022-12-07T14:26:14;101036.78;;;6.42;100.00
14767;BME280;7475;53.558;9.970;2022-12-07T14:28:41;101046.50;;;6.41;100.00
14767;BME280;7475;53.558;9.970;2022-12-07T14:31:17;101040.50;;;6.37;100.00
14767;BME280;7475;53.558;9.970;2022-12-07T14:33:45;101044.31;;;6.30;100.00
14767;BME280;7475;53.558;9.970;2022-12-07T14:36:13;101032.56;;;6.17;100.00
14767;BME280;7475;53.558;9.970;2022-12-07T14:38:39;101039.94;;;6.09;100.00
14767;BME280;7475;53.558;9.970;2022-12-07T14:41:12;101050.84;;;5.99;100.00
14767;BME280;7475;53.558;9.970;2022-12-07T14:43:57;101045.06;;;5.90;100.00
14767;BME280;7475;53.558;9.970;2022-12-07T14:46:23;101038.25;;;5.84;100.00
14767;BME280;7475;53.558;9.970;2022-12-07T14:48:48;101042.13;;;5.75;100.00
14767;BME280;7475;53.558;9.970;2022-12-07T14:51:14;101047.75;;;5.66;100.00
14767;BME280;7475;53.558;9.970;2022-12-07T14:53:43;101042.00;;;5.56;100.00
14767;BME280;7475;53.558;9.970;2022-12-07T14:56:09;101041.50;;;5.46;100.00
14767;BME280;7475;53.558;9.970;2022-12-07T14:58:35;101040.09;;;5.38;100.00
14767;BME280;7475;53.558;9.970;2022-12-07T15:01:00;101051.78;;;5.31;100.00
14767;BME280;7475;53.558;9.970;2022-12-07T15:03:26;101040.66;;;5.22;100.00
14767;BME280;7475;53.558;9.970;2022-12-07T15:05:51;101036.53;;;5.15;100.00
14767;BME280;7475;53.558;9.970;2022-12-07T15:08:17;101039.47;;;5.07;100.00
14767;BME280;7475;53.558;9.970;2022-12-07T15:10:43;101043.13;;;5.03;100.00
14767;BME280;7475;53.558;9.970;2022-12-07T15:13:08;101037.13;;;5.00;100.00
14767;BME280;7475;53.558;9.970;2022-12-07T15:15:53;101038.81;;;5.01;100.00
14767;BME280;7475;53.558;9.970;2022-12-07T15:18:20;101047.56;;;5.03;100.00
14767;BME280;7475;53.558;9.970;2022-12-07T15:20:46;101050.22;;;5.01;100.00
14767;BME280;7475;53.558;9.970;2022-12-07T15:23:18;101045.94;;;4.99;100.00
14767;BME280;7475;53.558;9.970;2022-12-07T15:25:45;101046.03;;;4.96;100.00